sensor_id;sensor_type;location;lat;lon;timestamp;P1;durP1;ratioP1;P2;durP2;ratioP2
19111;SDS011;9688;51.906;8.376;2023-08-07T00:00:51;7.73;;;2.40;;
19111;SDS011;9688;51.906;8.376;2023-08-07T00:03:37;7.93;;;2.40;;
19111;SDS011;9688;51.906;8.376;2023-08-07T00:06:23;7.00;;;2.20;;
19111;SDS011;9688;51.906;8.376;2023-08-07T00:09:11;8.50;;;2.40;;
19111;SDS011;9688;51.906;8.376;2023-08-07T00:11:58;6.77;;;2.20;;
19111;SDS011;9688;51.906;8.376;2023-08-07T00:14:44;6.20;;;2.10;;
19111;SDS011;9688;51.906;8.376;2023-08-07T00:17:32;10.17;;;2.80;;
19111;SDS011;9688;51.906;8.376;2023-08-07T00:20:18;6.33;;;2.30;;
19111;SDS011;9688;51.906;8.376;2023-08-07T00:23:03;7.43;;;2.47;;
19111;SDS011;9688;51.906;8.376;2023-08-07T00:25:49;6.50;;;2.60;;
19111;SDS011;9688;51.906;8.376;2023-08-07T00:28:37;5.23;;;2.67;;
19111;SDS011;9688;51.906;8.376;2023-08-07T00:31:23;6.47;;;2.87;;
19111;SDS011;9688;51.906;8.376;2023-08-07T00:34:09;7.87;;;3.03;;
19111;SDS011;9688;51.906;8.376;2023-08-07T00:36:55;7.93;;;3.20;;
19111;SDS011;9688;51.906;8.376;2023-08-07T00:39:40;7.60;;;3.00;;
19111;SDS011;9688;51.906;8.376;2023-08-07T00:42:27;9.13;;;3.40;;
19111;SDS011;9688;51.906;8.376;2023-08-07T00:45:14;10.03;;;3.27;;
19111;SDS011;9688;51.906;8.376;2023-08-07T00:48:01;7.43;;;3.47;;
19111;SDS011;9688;51.906;8.376;2023-08-07T00:50:47;7.17;;;3.03;;
19111;SDS011;9688;51.906;8.376;2023-08-07T00:53:37;8.97;;;3.20;;
19111;SDS011;9688;51.906;8.376;2023-08-07T00:56:23;7.97;;;3.10;;
19111;SDS011;9688;51.906;8.376;2023-08-07T00:59:10;6.57;;;2.90;;
19111;SDS011;9688;51.906;8.376;2023-08-07T01:01:57;5.20;;;3.07;;
19111;SDS011;9688;51.906;8.376;2023-08-07T01:04:43;7.97;;;3.13;;
19111;SDS011;9688;51.906;8.376;2023-08-07T01:07:29;5.10;;;2.87;;
19111;SDS011;9688;51.906;8.376;2023-08-07T01:10:15;4.50;;;2.73;;
19111;SDS011;9688;51.906;8.376;2023-08-07T01:13:04;7.30;;;2.60;;
19111;SDS011;9688;51.906;8.376;2023-08-07T01:16:01;6.87;;;3.33;;
19111;SDS011;9688;51.906;8.376;2023-08-07T01:18:53;10.80;;;3.37;;
19111;SDS011;9688;51.906;8.376;2023-08-07T01:21:39;10.17;;;2.80;;
19111;SDS011;9688;51.906;8.376;2023-08-07T01:24:27;4.30;;;3.10;;
19111;SDS011;9688;51.906;8.376;2023-08-07T01:27:15;4.17;;;3.07;;
19111;SDS011;9688;51.906;8.376;2023-08-07T01:30:12;5.17;;;3.20;;
19111;SDS011;9688;51.906;8.376;2023-08-07T01:33:06;4.10;;;3.10;;
19111;SDS011;9688;51.906;8.376;2023-08-07T01:35:56;8.73;;;3.10;;
19111;SDS011;9688;51.906;8.376;2023-08-07T01:38:45;5.53;;;3.27;;
19111;SDS011;9688;51.906;8.376;2023-08-07T01:41:35;5.77;;;2.87;;
19111;SDS011;9688;51.906;8.376;2023-08-07T01:44:21;5.43;;;3.07;;
19111;SDS011;9688;51.906;8.376;2023-08-07T01:47:07;4.77;;;3.33;;
19111;SDS011;9688;51.906;8.376;2023-08-07T01:49:53;5.53;;;3.50;;
19111;SDS011;9688;51.906;8.376;2023-08-07T01:52:39;3.83;;;2.80;;
19111;SDS011;9688;51.906;8.376;2023-08-07T01:55:25;8.00;;;3.10;;
19111;SDS011;9688;51.906;8.376;2023-08-07T01:58:13;5.07;;;2.93;;
19111;SDS011;9688;51.906;8.376;2023-08-07T02:00:59;5.60;;;2.90;;
19111;SDS011;9688;51.906;8.376;2023-08-07T02:03:45;7.00;;;3.60;;
19111;SDS011;9688;51.906;8.376;2023-08-07T02:06:31;6.93;;;3.17;;
19111;SDS011;9688;51.906;8.376;2023-08-07T02:09:16;4.80;;;3.37;;
19111;SDS011;9688;51.906;8.376;2023-08-07T02:12:03;4.63;;;3.37;;
19111;SDS011;9688;51.906;8.376;2023-08-07T02:14:50;5.27;;;3.47;;
19111;SDS011;9688;51.906;8.376;2023-08-07T02:17:36;4.47;;;3.23;;
19111;SDS011;9688;51.906;8.376;2023-08-07T02:20:25;3.87;;;3.20;;
19111;SDS011;9688;51.906;8.376;2023-08-07T02:23:10;3.93;;;3.53;;
19111;SDS011;9688;51.906;8.376;2023-08-07T02:25:56;5.90;;;3.40;;
19111;SDS011;9688;51.906;8.376;2023-08-07T02:28:42;4.70;;;3.60;;
19111;SDS011;9688;51.906;8.376;2023-08-07T02:31:29;8.13;;;4.10;;
19111;SDS011;9688;51.906;8.376;2023-08-07T02:34:15;6.63;;;4.07;;
19111;SDS011;9688;51.906;8.376;2023-08-07T02:37:01;9.80;;;4.20;;
19111;SDS011;9688;51.906;8.376;2023-08-07T02:39:46;5.77;;;4.00;;
19111;SDS011;9688;51.906;8.376;2023-08-07T02:42:32;7.03;;;4.10;;
19111;SDS011;9688;51.906;8.376;2023-08-07T02:45:18;5.00;;;3.83;;
19111;SDS011;9688;51.906;8.376;2023-08-07T02:48:05;8.57;;;4.17;;
19111;SDS011;9688;51.906;8.376;2023-08-07T02:50:51;9.17;;;4.70;;
19111;SDS011;9688;51.906;8.376;2023-08-07T02:53:37;6.10;;;3.97;;
19111;SDS011;9688;51.906;8.376;2023-08-07T02:56:23;5.87;;;4.23;;
19111;SDS011;9688;51.906;8.376;2023-08-07T02:59:09;6.57;;;4.63;;
19111;SDS011;9688;51.906;8.376;2023-08-07T03:01:56;5.87;;;5.00;;
19111;SDS011;9688;51.906;8.376;2023-08-07T03:04:43;9.13;;;5.17;;
19111;SDS011;9688;51.906;8.376;2023-08-07T03:07:29;7.70;;;4.90;;
19111;SDS011;9688;51.906;8.376;2023-08-07T03:10:14;11.77;;;5.17;;
19111;SDS011;9688;51.906;8.376;2023-08-07T03:13:00;12.07;;;5.77;;
19111;SDS011;9688;51.906;8.376;2023-08-07T03:15:46;9.07;;;5.50;;
19111;SDS011;9688;51.906;8.376;2023-08-07T03:18:33;16.07;;;5.17;;
19111;SDS011;9688;51.906;8.376;2023-08-07T03:21:20;9.97;;;5.47;;
19111;SDS011;9688;51.906;8.376;2023-08-07T03:24:06;8.87;;;5.43;;
19111;SDS011;9688;51.906;8.376;2023-08-07T03:26:52;15.03;;;6.80;;
19111;SDS011;9688;51.906;8.376;2023-08-07T03:29:38;8.90;;;6.33;;
19111;SDS011;9688;51.906;8.376;2023-08-07T03:32:24;7.20;;;5.80;;
19111;SDS011;9688;51.906;8.376;2023-08-07T03:35:09;6.77;;;5.80;;
19111;SDS011;9688;51.906;8.376;2023-08-07T03:37:56;9.70;;;5.53;;
19111;SDS011;9688;51.906;8.376;2023-08-07T03:40:42;12.03;;;5.97;;
19111;SDS011;9688;51.906;8.376;2023-08-07T03:43:28;11.70;;;5.10;;
19111;SDS011;9688;51.906;8.376;2023-08-07T03:46:13;8.33;;;5.90;;
19111;SDS011;9688;51.906;8.376;2023-08-07T03:48:59;8.80;;;4.70;;
19111;SDS011;9688;51.906;8.376;2023-08-07T03:51:45;7.97;;;4.70;;
19111;SDS011;9688;51.906;8.376;2023-08-07T03:54:32;6.93;;;4.37;;
19111;SDS011;9688;51.906;8.376;2023-08-07T03:57:18;8.63;;;3.93;;
19111;SDS011;9688;51.906;8.376;2023-08-07T04:00:04;5.20;;;4.10;;
19111;SDS011;9688;51.906;8.376;2023-08-07T04:02:51;7.67;;;4.03;;
19111;SDS011;9688;51.906;8.376;2023-08-07T04:05:37;7.60;;;4.17;;
19111;SDS011;9688;51.906;8.376;2023-08-07T04:08:23;5.97;;;4.13;;
19111;SDS011;9688;51.906;8.376;2023-08-07T04:11:10;6.83;;;3.80;;
19111;SDS011;9688;51.906;8.376;2023-08-07T04:13:56;4.63;;;3.93;;
19111;SDS011;9688;51.906;8.376;2023-08-07T04:16:42;5.10;;;4.03;;
19111;SDS011;9688;51.906;8.376;2023-08-07T04:19:28;8.00;;;4.20;;
19111;SDS011;9688;51.906;8.376;2023-08-07T04:22:14;5.67;;;3.80;;
19111;SDS011;9688;51.906;8.376;2023-08-07T04:24:59;5.07;;;3.23;;
19111;SDS011;9688;51.906;8.376;2023-08-07T04:27:47;4.67;;;3.93;;
19111;SDS011;9688;51.906;8.376;2023-08-07T04:30:33;4.07;;;2.90;;
19111;SDS011;9688;51.906;8.376;2023-08-07T04:33:19;4.17;;;3.33;;
19111;SDS011;9688;51.906;8.376;2023-08-07T04:36:05;4.30;;;3.20;;
19111;SDS011;9688;51.906;8.376;2023-08-07T04:38:51;3.50;;;3.10;;
19111;SDS011;9688;51.906;8.376;2023-08-07T04:41:39;3.17;;;2.80;;
19111;SDS011;9688;51.906;8.376;2023-08-07T04:44:26;4.07;;;2.83;;
19111;SDS011;9688;51.906;8.376;2023-08-07T04:47:12;4.60;;;3.37;;
19111;SDS011;9688;51.906;8.376;2023-08-07T04:49:58;2.50;;;2.30;;
19111;SDS011;9688;51.906;8.376;2023-08-07T04:52:44;2.47;;;2.33;;
19111;SDS011;9688;51.906;8.376;2023-08-07T04:55:30;2.60;;;2.33;;
19111;SDS011;9688;51.906;8.376;2023-08-07T04:58:16;4.03;;;2.47;;
19111;SDS011;9688;51.906;8.376;2023-08-07T05:01:03;2.90;;;2.60;;
19111;SDS011;9688;51.906;8.376;2023-08-07T05:03:50;3.57;;;2.40;;
19111;SDS011;9688;51.906;8.376;2023-08-07T05:06:36;4.87;;;2.50;;
19111;SDS011;9688;51.906;8.376;2023-08-07T05:09:22;2.70;;;2.50;;
19111;SDS011;9688;51.906;8.376;2023-08-07T05:12:08;3.23;;;2.03;;
19111;SDS011;9688;51.906;8.376;2023-08-07T05:14:54;2.97;;;1.87;;
19111;SDS011;9688;51.906;8.376;2023-08-07T05:17:41;3.77;;;2.17;;
19111;SDS011;9688;51.906;8.376;2023-08-07T05:20:27;1.87;;;1.77;;
19111;SDS011;9688;51.906;8.376;2023-08-07T05:23:12;2.20;;;2.10;;
19111;SDS011;9688;51.906;8.376;2023-08-07T05:25:58;3.60;;;1.83;;
19111;SDS011;9688;51.906;8.376;2023-08-07T05:28:44;3.13;;;1.97;;
19111;SDS011;9688;51.906;8.376;2023-08-07T05:31:30;3.63;;;2.10;;
19111;SDS011;9688;51.906;8.376;2023-08-07T05:34:17;6.83;;;2.53;;
19111;SDS011;9688;51.906;8.376;2023-08-07T05:37:03;4.57;;;2.10;;
19111;SDS011;9688;51.906;8.376;2023-08-07T05:39:49;4.63;;;2.10;;
19111;SDS011;9688;51.906;8.376;2023-08-07T05:42:35;4.33;;;2.17;;
19111;SDS011;9688;51.906;8.376;2023-08-07T05:45:21;4.13;;;2.10;;
19111;SDS011;9688;51.906;8.376;2023-08-07T05:48:12;5.23;;;1.90;;
19111;SDS011;9688;51.906;8.376;2023-08-07T05:51:00;3.07;;;1.70;;
19111;SDS011;9688;51.906;8.376;2023-08-07T05:53:46;6.63;;;2.00;;
19111;SDS011;9688;51.906;8.376;2023-08-07T05:56:32;2.03;;;1.70;;
19111;SDS011;9688;51.906;8.376;2023-08-07T05:59:18;3.20;;;1.90;;
19111;SDS011;9688;51.906;8.376;2023-08-07T06:02:04;2.70;;;1.70;;
19111;SDS011;9688;51.906;8.376;2023-08-07T06:04:50;2.83;;;1.50;;
19111;SDS011;9688;51.906;8.376;2023-08-07T06:07:38;2.10;;;1.33;;
19111;SDS011;9688;51.906;8.376;2023-08-07T06:10:24;1.10;;;1.10;;
19111;SDS011;9688;51.906;8.376;2023-08-07T06:13:11;2.20;;;1.30;;
19111;SDS011;9688;51.906;8.376;2023-08-07T06:16:00;1.17;;;1.10;;
19111;SDS011;9688;51.906;8.376;2023-08-07T06:18:49;1.20;;;1.10;;
19111;SDS011;9688;51.906;8.376;2023-08-07T06:21:35;3.00;;;1.30;;
19111;SDS011;9688;51.906;8.376;2023-08-07T06:24:22;1.03;;;1.03;;
19111;SDS011;9688;51.906;8.376;2023-08-07T06:27:09;2.10;;;1.20;;
19111;SDS011;9688;51.906;8.376;2023-08-07T06:29:55;1.60;;;1.37;;
19111;SDS011;9688;51.906;8.376;2023-08-07T06:32:41;1.20;;;1.10;;
19111;SDS011;9688;51.906;8.376;2023-08-07T06:35:27;1.43;;;1.00;;
19111;SDS011;9688;51.906;8.376;2023-08-07T06:38:13;1.37;;;1.27;;
19111;SDS011;9688;51.906;8.376;2023-08-07T06:41:00;1.00;;;1.00;;
19111;SDS011;9688;51.906;8.376;2023-08-07T06:43:47;1.97;;;1.10;;
19111;SDS011;9688;51.906;8.376;2023-08-07T06:46:34;4.67;;;1.53;;
19111;SDS011;9688;51.906;8.376;2023-08-07T06:49:19;2.10;;;1.40;;
19111;SDS011;9688;51.906;8.376;2023-08-07T06:52:06;1.70;;;1.60;;
19111;SDS011;9688;51.906;8.376;2023-08-07T06:54:51;5.00;;;1.30;;
19111;SDS011;9688;51.906;8.376;2023-08-07T06:57:39;3.47;;;1.60;;
19111;SDS011;9688;51.906;8.376;2023-08-07T07:00:25;4.77;;;1.60;;
19111;SDS011;9688;51.906;8.376;2023-08-07T07:03:11;4.73;;;1.37;;
19111;SDS011;9688;51.906;8.376;2023-08-07T07:05:57;1.87;;;1.70;;
19111;SDS011;9688;51.906;8.376;2023-08-07T07:08:44;2.20;;;1.67;;
19111;SDS011;9688;51.906;8.376;2023-08-07T07:11:30;1.70;;;1.40;;
19111;SDS011;9688;51.906;8.376;2023-08-07T07:14:17;4.93;;;1.80;;
19111;SDS011;9688;51.906;8.376;2023-08-07T07:17:03;4.17;;;2.10;;
19111;SDS011;9688;51.906;8.376;2023-08-07T07:19:49;5.93;;;2.73;;
19111;SDS011;9688;51.906;8.376;2023-08-07T07:22:35;3.17;;;2.20;;
19111;SDS011;9688;51.906;8.376;2023-08-07T07:25:22;4.53;;;2.23;;
19111;SDS011;9688;51.906;8.376;2023-08-07T07:28:08;3.63;;;2.33;;
19111;SDS011;9688;51.906;8.376;2023-08-07T07:30:56;5.93;;;2.50;;
19111;SDS011;9688;51.906;8.376;2023-08-07T07:33:45;3.50;;;2.20;;
19111;SDS011;9688;51.906;8.376;2023-08-07T07:36:31;3.17;;;1.87;;
19111;SDS011;9688;51.906;8.376;2023-08-07T07:39:17;3.77;;;2.60;;
19111;SDS011;9688;51.906;8.376;2023-08-07T07:42:03;6.77;;;2.70;;
19111;SDS011;9688;51.906;8.376;2023-08-07T07:44:50;6.17;;;2.43;;
19111;SDS011;9688;51.906;8.376;2023-08-07T07:47:38;6.90;;;2.60;;
19111;SDS011;9688;51.906;8.376;2023-08-07T07:50:23;6.53;;;2.20;;
19111;SDS011;9688;51.906;8.376;2023-08-07T07:53:09;4.80;;;2.40;;
19111;SDS011;9688;51.906;8.376;2023-08-07T07:55:56;6.37;;;2.17;;
19111;SDS011;9688;51.906;8.376;2023-08-07T07:58:42;3.00;;;2.03;;
19111;SDS011;9688;51.906;8.376;2023-08-07T08:01:28;4.73;;;1.90;;
19111;SDS011;9688;51.906;8.376;2023-08-07T08:04:15;8.70;;;2.23;;
19111;SDS011;9688;51.906;8.376;2023-08-07T08:07:01;3.33;;;2.17;;
19111;SDS011;9688;51.906;8.376;2023-08-07T08:09:48;6.03;;;2.70;;
19111;SDS011;9688;51.906;8.376;2023-08-07T08:12:34;5.10;;;2.20;;
19111;SDS011;9688;51.906;8.376;2023-08-07T08:15:20;6.13;;;2.30;;
19111;SDS011;9688;51.906;8.376;2023-08-07T08:18:06;5.33;;;2.30;;
19111;SDS011;9688;51.906;8.376;2023-08-07T08:20:55;6.23;;;2.20;;
19111;SDS011;9688;51.906;8.376;2023-08-07T08:23:41;5.93;;;2.30;;
19111;SDS011;9688;51.906;8.376;2023-08-07T08:26:28;9.63;;;2.40;;
19111;SDS011;9688;51.906;8.376;2023-08-07T08:29:15;6.53;;;2.07;;
19111;SDS011;9688;51.906;8.376;2023-08-07T08:32:01;5.67;;;2.13;;
19111;SDS011;9688;51.906;8.376;2023-08-07T08:34:46;7.03;;;2.47;;
19111;SDS011;9688;51.906;8.376;2023-08-07T08:37:36;5.00;;;2.10;;
19111;SDS011;9688;51.906;8.376;2023-08-07T08:40:29;8.90;;;2.30;;
19111;SDS011;9688;51.906;8.376;2023-08-07T08:43:15;4.63;;;2.20;;
19111;SDS011;9688;51.906;8.376;2023-08-07T08:46:01;9.43;;;2.57;;
19111;SDS011;9688;51.906;8.376;2023-08-07T08:48:50;7.27;;;2.40;;
19111;SDS011;9688;51.906;8.376;2023-08-07T08:51:37;9.00;;;2.70;;
19111;SDS011;9688;51.906;8.376;2023-08-07T08:54:25;4.77;;;2.20;;
19111;SDS011;9688;51.906;8.376;2023-08-07T08:57:11;5.23;;;2.60;;
19111;SDS011;9688;51.906;8.376;2023-08-07T08:59:58;9.27;;;2.57;;
19111;SDS011;9688;51.906;8.376;2023-08-07T09:02:45;5.27;;;3.03;;
19111;SDS011;9688;51.906;8.376;2023-08-07T09:05:33;7.83;;;2.50;;
19111;SDS011;9688;51.906;8.376;2023-08-07T09:08:21;5.43;;;2.23;;
19111;SDS011;9688;51.906;8.376;2023-08-07T09:11:11;7.60;;;2.37;;
19111;SDS011;9688;51.906;8.376;2023-08-07T09:14:00;6.90;;;1.93;;
19111;SDS011;9688;51.906;8.376;2023-08-07T09:16:47;6.23;;;2.40;;
19111;SDS011;9688;51.906;8.376;2023-08-07T09:19:34;8.93;;;2.77;;
19111;SDS011;9688;51.906;8.376;2023-08-07T09:22:20;10.63;;;2.63;;
19111;SDS011;9688;51.906;8.376;2023-08-07T09:25:06;11.53;;;2.43;;
19111;SDS011;9688;51.906;8.376;2023-08-07T09:27:55;6.37;;;2.53;;
19111;SDS011;9688;51.906;8.376;2023-08-07T09:30:42;5.20;;;2.20;;
19111;SDS011;9688;51.906;8.376;2023-08-07T09:33:30;3.70;;;1.93;;
19111;SDS011;9688;51.906;8.376;2023-08-07T09:36:20;8.50;;;2.77;;
19111;SDS011;9688;51.906;8.376;2023-08-07T09:39:09;5.20;;;1.80;;
19111;SDS011;9688;51.906;8.376;2023-08-07T09:41:56;2.10;;;1.80;;
19111;SDS011;9688;51.906;8.376;2023-08-07T09:44:43;2.03;;;1.83;;
19111;SDS011;9688;51.906;8.376;2023-08-07T09:47:31;3.43;;;2.00;;
19111;SDS011;9688;51.906;8.376;2023-08-07T09:50:17;6.73;;;1.77;;
19111;SDS011;9688;51.906;8.376;2023-08-07T09:53:03;2.53;;;1.77;;
19111;SDS011;9688;51.906;8.376;2023-08-07T09:55:49;8.50;;;2.23;;
19111;SDS011;9688;51.906;8.376;2023-08-07T09:58:38;5.43;;;1.97;;
19111;SDS011;9688;51.906;8.376;2023-08-07T10:01:33;5.33;;;2.27;;
19111;SDS011;9688;51.906;8.376;2023-08-07T10:04:22;6.80;;;2.40;;
19111;SDS011;9688;51.906;8.376;2023-08-07T10:07:09;5.63;;;2.10;;
19111;SDS011;9688;51.906;8.376;2023-08-07T10:09:58;3.93;;;2.07;;
19111;SDS011;9688;51.906;8.376;2023-08-07T10:12:44;6.03;;;2.00;;
19111;SDS011;9688;51.906;8.376;2023-08-07T10:15:32;4.83;;;2.30;;
19111;SDS011;9688;51.906;8.376;2023-08-07T10:18:21;5.63;;;1.90;;
19111;SDS011;9688;51.906;8.376;2023-08-07T10:21:08;2.87;;;1.80;;
19111;SDS011;9688;51.906;8.376;2023-08-07T10:23:57;3.67;;;2.10;;
19111;SDS011;9688;51.906;8.376;2023-08-07T10:26:46;10.10;;;1.97;;
19111;SDS011;9688;51.906;8.376;2023-08-07T10:29:34;3.20;;;1.87;;
19111;SDS011;9688;51.906;8.376;2023-08-07T10:32:22;8.50;;;2.67;;
19111;SDS011;9688;51.906;8.376;2023-08-07T10:35:13;8.97;;;2.50;;
19111;SDS011;9688;51.906;8.376;2023-08-07T10:38:09;9.10;;;2.67;;
19111;SDS011;9688;51.906;8.376;2023-08-07T10:40:59;8.47;;;2.80;;
19111;SDS011;9688;51.906;8.376;2023-08-07T10:43:48;9.23;;;3.30;;
19111;SDS011;9688;51.906;8.376;2023-08-07T10:46:46;10.03;;;3.00;;
19111;SDS011;9688;51.906;8.376;2023-08-07T10:49:33;4.83;;;2.40;;
19111;SDS011;9688;51.906;8.376;2023-08-07T10:52:21;6.73;;;2.20;;
19111;SDS011;9688;51.906;8.376;2023-08-07T10:55:12;5.63;;;2.47;;
19111;SDS011;9688;51.906;8.376;2023-08-07T10:57:59;10.13;;;3.67;;
19111;SDS011;9688;51.906;8.376;2023-08-07T11:00:46;11.53;;;2.60;;
19111;SDS011;9688;51.906;8.376;2023-08-07T11:03:34;3.97;;;2.13;;
19111;SDS011;9688;51.906;8.376;2023-08-07T11:06:22;7.50;;;2.60;;
19111;SDS011;9688;51.906;8.376;2023-08-07T11:09:11;9.60;;;3.37;;
19111;SDS011;9688;51.906;8.376;2023-08-07T11:11:57;5.63;;;3.17;;
19111;SDS011;9688;51.906;8.376;2023-08-07T11:14:44;3.90;;;2.57;;
19111;SDS011;9688;51.906;8.376;2023-08-07T11:17:30;6.97;;;2.60;;
19111;SDS011;9688;51.906;8.376;2023-08-07T11:20:16;6.40;;;2.33;;
19111;SDS011;9688;51.906;8.376;2023-08-07T11:23:02;5.83;;;2.23;;
19111;SDS011;9688;51.906;8.376;2023-08-07T11:25:53;4.17;;;2.10;;
19111;SDS011;9688;51.906;8.376;2023-08-07T11:28:39;6.47;;;2.87;;
19111;SDS011;9688;51.906;8.376;2023-08-07T11:31:27;6.53;;;3.13;;
19111;SDS011;9688;51.906;8.376;2023-08-07T11:34:13;4.73;;;2.50;;
19111;SDS011;9688;51.906;8.376;2023-08-07T11:37:00;5.07;;;2.43;;
19111;SDS011;9688;51.906;8.376;2023-08-07T11:39:46;7.20;;;2.30;;
19111;SDS011;9688;51.906;8.376;2023-08-07T11:42:34;6.13;;;2.57;;
19111;SDS011;9688;51.906;8.376;2023-08-07T11:45:20;8.23;;;2.53;;
19111;SDS011;9688;51.906;8.376;2023-08-07T11:48:07;8.27;;;2.30;;
19111;SDS011;9688;51.906;8.376;2023-08-07T11:50:54;6.77;;;2.33;;
19111;SDS011;9688;51.906;8.376;2023-08-07T11:53:41;12.70;;;2.90;;
19111;SDS011;9688;51.906;8.376;2023-08-07T11:56:29;9.93;;;2.77;;
19111;SDS011;9688;51.906;8.376;2023-08-07T11:59:17;8.60;;;2.53;;
19111;SDS011;9688;51.906;8.376;2023-08-07T12:02:08;10.70;;;2.93;;
19111;SDS011;9688;51.906;8.376;2023-08-07T12:04:58;8.60;;;2.80;;
19111;SDS011;9688;51.906;8.376;2023-08-07T12:07:44;8.60;;;2.87;;
19111;SDS011;9688;51.906;8.376;2023-08-07T12:10:30;9.57;;;2.80;;
19111;SDS011;9688;51.906;8.376;2023-08-07T12:13:20;7.10;;;3.03;;
19111;SDS011;9688;51.906;8.376;2023-08-07T12:16:10;7.83;;;2.80;;
19111;SDS011;9688;51.906;8.376;2023-08-07T12:18:59;6.57;;;2.83;;
19111;SDS011;9688;51.906;8.376;2023-08-07T12:21:49;10.10;;;2.60;;
19111;SDS011;9688;51.906;8.376;2023-08-07T12:24:35;11.47;;;3.03;;
19111;SDS011;9688;51.906;8.376;2023-08-07T12:27:21;7.57;;;2.50;;
19111;SDS011;9688;51.906;8.376;2023-08-07T12:30:08;9.37;;;2.90;;
19111;SDS011;9688;51.906;8.376;2023-08-07T12:32:56;8.27;;;2.70;;
19111;SDS011;9688;51.906;8.376;2023-08-07T12:35:43;7.47;;;2.80;;
19111;SDS011;9688;51.906;8.376;2023-08-07T12:38:30;3.70;;;2.40;;
19111;SDS011;9688;51.906;8.376;2023-08-07T12:41:16;13.13;;;2.93;;
19111;SDS011;9688;51.906;8.376;2023-08-07T12:44:02;9.63;;;2.50;;
19111;SDS011;9688;51.906;8.376;2023-08-07T12:46:48;4.73;;;2.73;;
19111;SDS011;9688;51.906;8.376;2023-08-07T12:49:35;5.57;;;2.30;;
19111;SDS011;9688;51.906;8.376;2023-08-07T12:52:28;5.23;;;2.13;;
19111;SDS011;9688;51.906;8.376;2023-08-07T12:55:14;6.50;;;2.17;;
19111;SDS011;9688;51.906;8.376;2023-08-07T12:58:00;6.77;;;2.23;;
19111;SDS011;9688;51.906;8.376;2023-08-07T13:00:47;5.23;;;2.40;;
19111;SDS011;9688;51.906;8.376;2023-08-07T13:03:33;14.63;;;2.83;;
19111;SDS011;9688;51.906;8.376;2023-08-07T13:06:26;7.57;;;2.47;;
19111;SDS011;9688;51.906;8.376;2023-08-07T13:09:12;6.00;;;2.53;;
19111;SDS011;9688;51.906;8.376;2023-08-07T13:11:58;5.43;;;2.13;;
19111;SDS011;9688;51.906;8.376;2023-08-07T13:14:44;5.97;;;2.10;;
19111;SDS011;9688;51.906;8.376;2023-08-07T13:17:31;10.97;;;2.90;;
19111;SDS011;9688;51.906;8.376;2023-08-07T13:20:16;3.60;;;1.70;;
19111;SDS011;9688;51.906;8.376;2023-08-07T13:23:04;5.47;;;1.90;;
19111;SDS011;9688;51.906;8.376;2023-08-07T13:25:50;4.83;;;1.90;;
19111;SDS011;9688;51.906;8.376;2023-08-07T13:28:36;6.80;;;2.10;;
19111;SDS011;9688;51.906;8.376;2023-08-07T13:31:22;5.00;;;2.10;;
19111;SDS011;9688;51.906;8.376;2023-08-07T13:34:08;6.23;;;1.93;;
19111;SDS011;9688;51.906;8.376;2023-08-07T13:36:55;5.30;;;2.10;;
19111;SDS011;9688;51.906;8.376;2023-08-07T13:39:44;4.27;;;2.10;;
19111;SDS011;9688;51.906;8.376;2023-08-07T13:42:32;4.00;;;2.10;;
19111;SDS011;9688;51.906;8.376;2023-08-07T13:45:19;5.37;;;2.20;;
19111;SDS011;9688;51.906;8.376;2023-08-07T13:48:08;4.23;;;1.83;;
19111;SDS011;9688;51.906;8.376;2023-08-07T13:50:55;4.47;;;1.90;;
19111;SDS011;9688;51.906;8.376;2023-08-07T13:53:41;3.63;;;2.10;;
19111;SDS011;9688;51.906;8.376;2023-08-07T13:56:31;5.13;;;2.40;;
19111;SDS011;9688;51.906;8.376;2023-08-07T13:59:17;3.33;;;1.90;;
19111;SDS011;9688;51.906;8.376;2023-08-07T14:02:03;5.73;;;2.10;;
19111;SDS011;9688;51.906;8.376;2023-08-07T14:04:50;4.77;;;2.00;;
19111;SDS011;9688;51.906;8.376;2023-08-07T14:07:36;6.73;;;2.10;;
19111;SDS011;9688;51.906;8.376;2023-08-07T14:10:23;7.00;;;2.03;;
19111;SDS011;9688;51.906;8.376;2023-08-07T14:13:10;7.80;;;2.07;;
19111;SDS011;9688;51.906;8.376;2023-08-07T14:15:57;4.23;;;1.97;;
19111;SDS011;9688;51.906;8.376;2023-08-07T14:18:45;4.20;;;2.30;;
19111;SDS011;9688;51.906;8.376;2023-08-07T14:21:31;4.17;;;2.43;;
19111;SDS011;9688;51.906;8.376;2023-08-07T14:24:17;5.73;;;2.00;;
19111;SDS011;9688;51.906;8.376;2023-08-07T14:27:04;4.87;;;1.90;;
19111;SDS011;9688;51.906;8.376;2023-08-07T14:29:55;3.90;;;2.40;;
19111;SDS011;9688;51.906;8.376;2023-08-07T14:32:42;3.23;;;2.00;;
19111;SDS011;9688;51.906;8.376;2023-08-07T14:35:30;2.93;;;1.80;;
19111;SDS011;9688;51.906;8.376;2023-08-07T14:38:19;3.63;;;1.87;;
19111;SDS011;9688;51.906;8.376;2023-08-07T14:41:05;5.53;;;2.10;;
19111;SDS011;9688;51.906;8.376;2023-08-07T14:43:50;4.27;;;2.20;;
19111;SDS011;9688;51.906;8.376;2023-08-07T14:46:40;5.90;;;2.90;;
19111;SDS011;9688;51.906;8.376;2023-08-07T14:49:26;9.77;;;1.90;;
19111;SDS011;9688;51.906;8.376;2023-08-07T14:52:12;6.40;;;1.83;;
19111;SDS011;9688;51.906;8.376;2023-08-07T14:54:58;4.63;;;1.83;;
19111;SDS011;9688;51.906;8.376;2023-08-07T14:57:45;4.37;;;1.87;;
19111;SDS011;9688;51.906;8.376;2023-08-07T15:00:31;2.80;;;1.47;;
19111;SDS011;9688;51.906;8.376;2023-08-07T15:03:18;5.67;;;2.13;;
19111;SDS011;9688;51.906;8.376;2023-08-07T15:06:04;5.40;;;1.90;;
19111;SDS011;9688;51.906;8.376;2023-08-07T15:08:50;3.90;;;1.70;;
19111;SDS011;9688;51.906;8.376;2023-08-07T15:11:36;7.60;;;2.13;;
19111;SDS011;9688;51.906;8.376;2023-08-07T15:14:22;4.17;;;2.30;;
19111;SDS011;9688;51.906;8.376;2023-08-07T15:17:08;4.40;;;1.90;;
19111;SDS011;9688;51.906;8.376;2023-08-07T15:19:55;6.47;;;2.10;;
19111;SDS011;9688;51.906;8.376;2023-08-07T15:22:41;3.37;;;2.03;;
19111;SDS011;9688;51.906;8.376;2023-08-07T15:25:27;2.93;;;1.87;;
19111;SDS011;9688;51.906;8.376;2023-08-07T15:28:14;4.23;;;1.70;;
19111;SDS011;9688;51.906;8.376;2023-08-07T15:31:00;6.87;;;1.70;;
19111;SDS011;9688;51.906;8.376;2023-08-07T15:33:46;4.37;;;1.70;;
19111;SDS011;9688;51.906;8.376;2023-08-07T15:36:36;3.70;;;1.60;;
19111;SDS011;9688;51.906;8.376;2023-08-07T15:39:22;2.80;;;1.60;;
19111;SDS011;9688;51.906;8.376;2023-08-07T15:42:08;4.03;;;1.47;;
19111;SDS011;9688;51.906;8.376;2023-08-07T15:44:54;3.57;;;1.80;;
19111;SDS011;9688;51.906;8.376;2023-08-07T15:47:41;4.57;;;1.83;;
19111;SDS011;9688;51.906;8.376;2023-08-07T15:50:28;1.73;;;1.63;;
19111;SDS011;9688;51.906;8.376;2023-08-07T15:53:20;3.77;;;1.53;;
19111;SDS011;9688;51.906;8.376;2023-08-07T15:56:06;4.73;;;2.20;;
19111;SDS011;9688;51.906;8.376;2023-08-07T15:58:53;2.03;;;1.50;;
19111;SDS011;9688;51.906;8.376;2023-08-07T16:01:38;3.53;;;1.60;;
19111;SDS011;9688;51.906;8.376;2023-08-07T16:04:26;3.33;;;2.10;;
19111;SDS011;9688;51.906;8.376;2023-08-07T16:07:12;4.30;;;1.50;;
19111;SDS011;9688;51.906;8.376;2023-08-07T16:10:00;6.73;;;1.93;;
19111;SDS011;9688;51.906;8.376;2023-08-07T16:12:47;3.27;;;2.07;;
19111;SDS011;9688;51.906;8.376;2023-08-07T16:15:36;8.60;;;1.90;;
19111;SDS011;9688;51.906;8.376;2023-08-07T16:18:22;3.77;;;2.27;;
19111;SDS011;9688;51.906;8.376;2023-08-07T16:21:08;3.73;;;1.77;;
19111;SDS011;9688;51.906;8.376;2023-08-07T16:23:57;4.17;;;1.83;;
19111;SDS011;9688;51.906;8.376;2023-08-07T16:26:45;6.37;;;2.07;;
19111;SDS011;9688;51.906;8.376;2023-08-07T16:29:31;3.50;;;2.03;;
19111;SDS011;9688;51.906;8.376;2023-08-07T16:32:17;4.27;;;1.97;;
19111;SDS011;9688;51.906;8.376;2023-08-07T16:35:05;4.97;;;2.20;;
19111;SDS011;9688;51.906;8.376;2023-08-07T16:37:52;2.87;;;2.07;;
19111;SDS011;9688;51.906;8.376;2023-08-07T16:40:42;4.63;;;1.97;;
19111;SDS011;9688;51.906;8.376;2023-08-07T16:43:29;6.80;;;2.63;;
19111;SDS011;9688;51.906;8.376;2023-08-07T16:46:14;9.03;;;2.00;;
19111;SDS011;9688;51.906;8.376;2023-08-07T16:49:01;4.13;;;2.00;;
19111;SDS011;9688;51.906;8.376;2023-08-07T16:51:46;8.47;;;2.40;;
19111;SDS011;9688;51.906;8.376;2023-08-07T16:54:33;5.17;;;2.33;;
19111;SDS011;9688;51.906;8.376;2023-08-07T16:57:21;4.87;;;2.13;;
19111;SDS011;9688;51.906;8.376;2023-08-07T17:00:09;6.77;;;2.67;;